sensor_id;sensor_type;location;lat;lon;timestamp;P1;durP1;ratioP1;P2;durP2;ratioP2
40993;SDS011;26722;43.212;27.932;2023-03-15T00:01:36;5.15;;;2.03;;
40993;SDS011;26722;43.212;27.932;2023-03-15T00:04:01;6.28;;;1.85;;
40993;SDS011;26722;43.212;27.932;2023-03-15T00:06:30;3.05;;;1.55;;
40993;SDS011;26722;43.212;27.932;2023-03-15T00:08:59;5.15;;;1.80;;
40993;SDS011;26722;43.212;27.932;2023-03-15T00:11:28;10.55;;;1.75;;
40993;SDS011;26722;43.212;27.932;2023-03-15T00:13:58;4.20;;;2.17;;
40993;SDS011;26722;43.212;27.932;2023-03-15T00:16:26;6.97;;;1.75;;
40993;SDS011;26722;43.212;27.932;2023-03-15T00:18:52;5.05;;;1.88;;
40993;SDS011;26722;43.212;27.932;2023-03-15T00:21:18;6.75;;;2.17;;
40993;SDS011;26722;43.212;27.932;2023-03-15T00:23:44;7.60;;;2.08;;
40993;SDS011;26722;43.212;27.932;2023-03-15T00:26:10;7.53;;;2.67;;
40993;SDS011;26722;43.212;27.932;2023-03-15T00:28:37;5.40;;;1.70;;
40993;SDS011;26722;43.212;27.932;2023-03-15T00:31:03;5.25;;;1.88;;
40993;SDS011;26722;43.212;27.932;2023-03-15T00:33:31;8.48;;;2.35;;
40993;SDS011;26722;43.212;27.932;2023-03-15T00:36:05;6.80;;;1.90;;
40993;SDS011;26722;43.212;27.932;2023-03-15T00:38:35;5.40;;;1.90;;
40993;SDS011;26722;43.212;27.932;2023-03-15T00:41:09;3.72;;;1.80;;
40993;SDS011;26722;43.212;27.932;2023-03-15T00:43:36;8.75;;;1.95;;
40993;SDS011;26722;43.212;27.932;2023-03-15T00:46:02;6.25;;;1.80;;
40993;SDS011;26722;43.212;27.932;2023-03-15T00:48:28;5.97;;;1.70;;
40993;SDS011;26722;43.212;27.932;2023-03-15T00:51:27;9.18;;;2.45;;
40993;SDS011;26722;43.212;27.932;2023-03-15T00:53:48;4.55;;;2.00;;
40993;SDS011;26722;43.212;27.932;2023-03-15T00:56:19;9.32;;;2.00;;
40993;SDS011;26722;43.212;27.932;2023-03-15T00:58:46;8.57;;;1.75;;
40993;SDS011;26722;43.212;27.932;2023-03-15T01:01:13;5.75;;;2.10;;
40993;SDS011;26722;43.212;27.932;2023-03-15T01:03:41;8.38;;;1.95;;
40993;SDS011;26722;43.212;27.932;2023-03-15T01:06:10;5.57;;;1.98;;
40993;SDS011;26722;43.212;27.932;2023-03-15T01:08:37;7.65;;;1.90;;
40993;SDS011;26722;43.212;27.932;2023-03-15T01:11:03;6.80;;;1.80;;
40993;SDS011;26722;43.212;27.932;2023-03-15T01:13:30;5.20;;;2.00;;
40993;SDS011;26722;43.212;27.932;2023-03-15T01:15:56;5.78;;;1.98;;
40993;SDS011;26722;43.212;27.932;2023-03-15T01:18:22;8.40;;;2.50;;
40993;SDS011;26722;43.212;27.932;2023-03-15T01:20:47;5.68;;;2.08;;
40993;SDS011;26722;43.212;27.932;2023-03-15T01:23:13;8.20;;;2.00;;
40993;SDS011;26722;43.212;27.932;2023-03-15T01:25:38;6.35;;;2.20;;
40993;SDS011;26722;43.212;27.932;2023-03-15T01:28:04;6.25;;;2.13;;
40993;SDS011;26722;43.212;27.932;2023-03-15T01:30:29;9.20;;;2.38;;
40993;SDS011;26722;43.212;27.932;2023-03-15T01:32:55;5.07;;;1.98;;
40993;SDS011;26722;43.212;27.932;2023-03-15T01:35:20;11.95;;;1.98;;
40993;SDS011;26722;43.212;27.932;2023-03-15T01:37:48;3.97;;;1.80;;
40993;SDS011;26722;43.212;27.932;2023-03-15T01:40:14;6.57;;;2.40;;
40993;SDS011;26722;43.212;27.932;2023-03-15T01:51:00;5.60;;;2.20;;
40993;SDS011;26722;43.212;27.932;2023-03-15T01:53:31;7.78;;;1.80;;
40993;SDS011;26722;43.212;27.932;2023-03-15T01:55:57;7.57;;;2.25;;
40993;SDS011;26722;43.212;27.932;2023-03-15T01:58:24;9.52;;;2.28;;
40993;SDS011;26722;43.212;27.932;2023-03-15T02:00:52;5.88;;;2.25;;
40993;SDS011;26722;43.212;27.932;2023-03-15T02:03:22;7.30;;;2.10;;
40993;SDS011;26722;43.212;27.932;2023-03-15T02:05:59;14.25;;;2.55;;
40993;SDS011;26722;43.212;27.932;2023-03-15T02:08:30;5.25;;;2.10;;
40993;SDS011;26722;43.212;27.932;2023-03-15T02:10:57;6.85;;;2.38;;
40993;SDS011;26722;43.212;27.932;2023-03-15T02:13:27;8.88;;;2.22;;
40993;SDS011;26722;43.212;27.932;2023-03-15T02:15:54;4.47;;;2.60;;
40993;SDS011;26722;43.212;27.932;2023-03-15T02:18:21;6.30;;;2.67;;
40993;SDS011;26722;43.212;27.932;2023-03-15T02:23:40;8.90;;;2.50;;
40993;SDS011;26722;43.212;27.932;2023-03-15T02:28:59;9.57;;;2.40;;
40993;SDS011;26722;43.212;27.932;2023-03-15T02:31:25;5.32;;;1.58;;
40993;SDS011;26722;43.212;27.932;2023-03-15T02:33:51;5.50;;;1.85;;
40993;SDS011;26722;43.212;27.932;2023-03-15T02:38:47;6.13;;;2.28;;
40993;SDS011;26722;43.212;27.932;2023-03-15T02:41:14;6.85;;;1.98;;
40993;SDS011;26722;43.212;27.932;2023-03-15T02:43:44;10.15;;;2.38;;
40993;SDS011;26722;43.212;27.932;2023-03-15T02:46:11;9.82;;;2.45;;
40993;SDS011;26722;43.212;27.932;2023-03-15T02:48:38;9.27;;;2.08;;
40993;SDS011;26722;43.212;27.932;2023-03-15T02:51:06;7.22;;;1.98;;
40993;SDS011;26722;43.212;27.932;2023-03-15T02:53:31;5.55;;;2.00;;
40993;SDS011;26722;43.212;27.932;2023-03-15T02:55:57;5.68;;;2.20;;
40993;SDS011;26722;43.212;27.932;2023-03-15T02:58:23;9.85;;;2.38;;
40993;SDS011;26722;43.212;27.932;2023-03-15T03:00:49;5.85;;;1.90;;
40993;SDS011;26722;43.212;27.932;2023-03-15T03:03:16;4.45;;;2.05;;
40993;SDS011;26722;43.212;27.932;2023-03-15T03:05:41;13.50;;;2.20;;
40993;SDS011;26722;43.212;27.932;2023-03-15T03:08:07;3.70;;;2.00;;
40993;SDS011;26722;43.212;27.932;2023-03-15T03:10:32;3.70;;;1.85;;
40993;SDS011;26722;43.212;27.932;2023-03-15T03:12:58;10.77;;;2.20;;
40993;SDS011;26722;43.212;27.932;2023-03-15T03:15:23;3.15;;;1.60;;
40993;SDS011;26722;43.212;27.932;2023-03-15T03:17:48;7.20;;;1.92;;
40993;SDS011;26722;43.212;27.932;2023-03-15T03:20:14;6.22;;;2.65;;
40993;SDS011;26722;43.212;27.932;2023-03-15T03:22:40;5.45;;;2.10;;
40993;SDS011;26722;43.212;27.932;2023-03-15T03:25:07;8.93;;;2.70;;
40993;SDS011;26722;43.212;27.932;2023-03-15T03:27:36;7.75;;;2.25;;
40993;SDS011;26722;43.212;27.932;2023-03-15T03:30:04;8.10;;;2.47;;
40993;SDS011;26722;43.212;27.932;2023-03-15T03:32:31;8.13;;;2.20;;
40993;SDS011;26722;43.212;27.932;2023-03-15T03:34:57;7.40;;;2.47;;
40993;SDS011;26722;43.212;27.932;2023-03-15T03:37:23;6.22;;;1.90;;
40993;SDS011;26722;43.212;27.932;2023-03-15T03:39:48;5.57;;;1.92;;
40993;SDS011;26722;43.212;27.932;2023-03-15T03:42:14;6.80;;;2.00;;
40993;SDS011;26722;43.212;27.932;2023-03-15T03:44:40;13.23;;;2.17;;
40993;SDS011;26722;43.212;27.932;2023-03-15T03:47:06;7.65;;;2.35;;
40993;SDS011;26722;43.212;27.932;2023-03-15T03:49:32;5.20;;;2.08;;
40993;SDS011;26722;43.212;27.932;2023-03-15T03:51:57;6.68;;;2.08;;
40993;SDS011;26722;43.212;27.932;2023-03-15T03:54:24;8.52;;;2.25;;
40993;SDS011;26722;43.212;27.932;2023-03-15T03:56:50;10.68;;;2.58;;
40993;SDS011;26722;43.212;27.932;2023-03-15T03:59:15;7.45;;;1.95;;
40993;SDS011;26722;43.212;27.932;2023-03-15T04:01:41;5.13;;;1.90;;
40993;SDS011;26722;43.212;27.932;2023-03-15T04:04:06;8.10;;;2.08;;
40993;SDS011;26722;43.212;27.932;2023-03-15T04:06:32;8.40;;;2.08;;
40993;SDS011;26722;43.212;27.932;2023-03-15T04:08:58;6.75;;;2.10;;
40993;SDS011;26722;43.212;27.932;2023-03-15T04:11:24;7.43;;;2.33;;
40993;SDS011;26722;43.212;27.932;2023-03-15T04:13:53;5.28;;;1.95;;
40993;SDS011;26722;43.212;27.932;2023-03-15T04:16:19;6.40;;;2.08;;
40993;SDS011;26722;43.212;27.932;2023-03-15T04:18:45;7.97;;;1.90;;
40993;SDS011;26722;43.212;27.932;2023-03-15T04:21:11;6.18;;;1.73;;
40993;SDS011;26722;43.212;27.932;2023-03-15T04:23:36;9.18;;;1.83;;
40993;SDS011;26722;43.212;27.932;2023-03-15T04:26:02;6.63;;;2.10;;
40993;SDS011;26722;43.212;27.932;2023-03-15T04:28:29;6.95;;;1.70;;
40993;SDS011;26722;43.212;27.932;2023-03-15T04:30:56;7.25;;;1.90;;
40993;SDS011;26722;43.212;27.932;2023-03-15T04:33:22;7.25;;;1.77;;
40993;SDS011;26722;43.212;27.932;2023-03-15T04:35:51;8.88;;;2.20;;
40993;SDS011;26722;43.212;27.932;2023-03-15T04:38:18;6.47;;;1.90;;
40993;SDS011;26722;43.212;27.932;2023-03-15T04:40:44;7.93;;;1.98;;
40993;SDS011;26722;43.212;27.932;2023-03-15T04:43:09;7.30;;;2.00;;
40993;SDS011;26722;43.212;27.932;2023-03-15T04:45:35;8.45;;;2.03;;
40993;SDS011;26722;43.212;27.932;2023-03-15T04:48:00;6.28;;;1.80;;
40993;SDS011;26722;43.212;27.932;2023-03-15T04:50:27;7.13;;;1.90;;
40993;SDS011;26722;43.212;27.932;2023-03-15T04:52:54;7.47;;;2.15;;
40993;SDS011;26722;43.212;27.932;2023-03-15T04:55:19;3.85;;;1.75;;
40993;SDS011;26722;43.212;27.932;2023-03-15T04:57:45;5.07;;;1.95;;
40993;SDS011;26722;43.212;27.932;2023-03-15T05:00:11;8.05;;;2.17;;
40993;SDS011;26722;43.212;27.932;2023-03-15T05:02:37;8.93;;;2.85;;
40993;SDS011;26722;43.212;27.932;2023-03-15T05:05:09;5.45;;;2.30;;
40993;SDS011;26722;43.212;27.932;2023-03-15T05:07:35;6.35;;;2.17;;
40993;SDS011;26722;43.212;27.932;2023-03-15T05:10:02;7.15;;;2.40;;
40993;SDS011;26722;43.212;27.932;2023-03-15T05:12:28;5.72;;;1.90;;
40993;SDS011;26722;43.212;27.932;2023-03-15T05:14:54;5.55;;;2.00;;
40993;SDS011;26722;43.212;27.932;2023-03-15T05:17:20;10.65;;;2.35;;
40993;SDS011;26722;43.212;27.932;2023-03-15T05:19:46;9.75;;;2.22;;
40993;SDS011;26722;43.212;27.932;2023-03-15T05:22:12;9.38;;;2.17;;
40993;SDS011;26722;43.212;27.932;2023-03-15T05:24:38;10.27;;;2.15;;
40993;SDS011;26722;43.212;27.932;2023-03-15T05:27:03;5.90;;;1.77;;
40993;SDS011;26722;43.212;27.932;2023-03-15T05:29:29;10.05;;;2.58;;
40993;SDS011;26722;43.212;27.932;2023-03-15T05:31:55;8.35;;;2.83;;
40993;SDS011;26722;43.212;27.932;2023-03-15T05:34:20;7.97;;;2.50;;
40993;SDS011;26722;43.212;27.932;2023-03-15T05:36:48;7.10;;;2.72;;
40993;SDS011;26722;43.212;27.932;2023-03-15T05:39:15;8.57;;;2.60;;
40993;SDS011;26722;43.212;27.932;2023-03-15T05:41:41;5.30;;;2.15;;
40993;SDS011;26722;43.212;27.932;2023-03-15T05:44:07;5.25;;;2.28;;
40993;SDS011;26722;43.212;27.932;2023-03-15T05:46:33;5.95;;;2.00;;
40993;SDS011;26722;43.212;27.932;2023-03-15T05:48:58;7.57;;;2.30;;
40993;SDS011;26722;43.212;27.932;2023-03-15T05:51:23;10.32;;;2.47;;
40993;SDS011;26722;43.212;27.932;2023-03-15T05:53:49;7.47;;;2.30;;
40993;SDS011;26722;43.212;27.932;2023-03-15T05:56:14;6.68;;;2.40;;
40993;SDS011;26722;43.212;27.932;2023-03-15T05:58:40;7.32;;;2.10;;
40993;SDS011;26722;43.212;27.932;2023-03-15T06:01:05;10.80;;;2.00;;
40993;SDS011;26722;43.212;27.932;2023-03-15T06:03:31;10.23;;;2.28;;
40993;SDS011;26722;43.212;27.932;2023-03-15T06:05:57;12.20;;;2.50;;
40993;SDS011;26722;43.212;27.932;2023-03-15T06:08:23;10.48;;;3.08;;
40993;SDS011;26722;43.212;27.932;2023-03-15T06:10:49;6.85;;;2.20;;
40993;SDS011;26722;43.212;27.932;2023-03-15T06:13:15;10.15;;;2.72;;
40993;SDS011;26722;43.212;27.932;2023-03-15T06:15:40;13.68;;;2.70;;
40993;SDS011;26722;43.212;27.932;2023-03-15T06:18:07;12.23;;;2.63;;
40993;SDS011;26722;43.212;27.932;2023-03-15T06:20:33;9.32;;;2.40;;
40993;SDS011;26722;43.212;27.932;2023-03-15T06:22:58;7.53;;;2.20;;
40993;SDS011;26722;43.212;27.932;2023-03-15T06:25:24;4.57;;;1.90;;
40993;SDS011;26722;43.212;27.932;2023-03-15T06:27:50;8.02;;;2.53;;
40993;SDS011;26722;43.212;27.932;2023-03-15T06:30:15;5.45;;;2.00;;
40993;SDS011;26722;43.212;27.932;2023-03-15T06:32:41;9.43;;;2.47;;
40993;SDS011;26722;43.212;27.932;2023-03-15T06:35:06;9.38;;;1.90;;
40993;SDS011;26722;43.212;27.932;2023-03-15T06:37:33;10.45;;;2.50;;
40993;SDS011;26722;43.212;27.932;2023-03-15T06:40:00;8.90;;;2.50;;
40993;SDS011;26722;43.212;27.932;2023-03-15T06:42:32;8.15;;;2.60;;
40993;SDS011;26722;43.212;27.932;2023-03-15T06:44:58;10.00;;;2.53;;
40993;SDS011;26722;43.212;27.932;2023-03-15T06:47:23;8.93;;;2.20;;
40993;SDS011;26722;43.212;27.932;2023-03-15T06:49:49;10.02;;;2.60;;
40993;SDS011;26722;43.212;27.932;2023-03-15T06:52:15;8.25;;;2.47;;
40993;SDS011;26722;43.212;27.932;2023-03-15T06:54:41;11.55;;;2.70;;
40993;SDS011;26722;43.212;27.932;2023-03-15T06:57:06;9.50;;;2.80;;
40993;SDS011;26722;43.212;27.932;2023-03-15T06:59:32;5.07;;;2.15;;
40993;SDS011;26722;43.212;27.932;2023-03-15T07:01:57;13.85;;;2.63;;
40993;SDS011;26722;43.212;27.932;2023-03-15T07:04:23;9.23;;;2.38;;
40993;SDS011;26722;43.212;27.932;2023-03-15T07:06:48;9.77;;;2.65;;
40993;SDS011;26722;43.212;27.932;2023-03-15T07:09:14;7.80;;;1.90;;
40993;SDS011;26722;43.212;27.932;2023-03-15T07:11:39;10.57;;;2.53;;
40993;SDS011;26722;43.212;27.932;2023-03-15T07:14:05;8.75;;;2.30;;
40993;SDS011;26722;43.212;27.932;2023-03-15T07:16:30;5.13;;;2.10;;
40993;SDS011;26722;43.212;27.932;2023-03-15T07:18:56;11.32;;;2.42;;
40993;SDS011;26722;43.212;27.932;2023-03-15T07:21:23;9.05;;;2.25;;
40993;SDS011;26722;43.212;27.932;2023-03-15T07:23:48;7.40;;;2.85;;
40993;SDS011;26722;43.212;27.932;2023-03-15T07:26:14;11.60;;;2.13;;
40993;SDS011;26722;43.212;27.932;2023-03-15T07:28:40;9.85;;;2.20;;
40993;SDS011;26722;43.212;27.932;2023-03-15T07:31:06;10.80;;;2.47;;
40993;SDS011;26722;43.212;27.932;2023-03-15T07:33:32;9.02;;;2.55;;
40993;SDS011;26722;43.212;27.932;2023-03-15T07:36:00;8.80;;;3.15;;
40993;SDS011;26722;43.212;27.932;2023-03-15T07:38:28;10.93;;;3.38;;
40993;SDS011;26722;43.212;27.932;2023-03-15T07:40:53;8.10;;;2.90;;
40993;SDS011;26722;43.212;27.932;2023-03-15T07:43:19;9.35;;;2.55;;
40993;SDS011;26722;43.212;27.932;2023-03-15T07:45:45;14.25;;;2.95;;
40993;SDS011;26722;43.212;27.932;2023-03-15T07:48:11;17.17;;;2.85;;
40993;SDS011;26722;43.212;27.932;2023-03-15T07:50:36;11.88;;;3.55;;
40993;SDS011;26722;43.212;27.932;2023-03-15T07:53:02;10.25;;;3.22;;
40993;SDS011;26722;43.212;27.932;2023-03-15T07:55:30;9.90;;;2.90;;
40993;SDS011;26722;43.212;27.932;2023-03-15T07:57:56;10.30;;;2.92;;
40993;SDS011;26722;43.212;27.932;2023-03-15T08:00:21;12.48;;;3.47;;
40993;SDS011;26722;43.212;27.932;2023-03-15T08:02:47;6.60;;;2.38;;
40993;SDS011;26722;43.212;27.932;2023-03-15T08:05:12;8.63;;;2.35;;
40993;SDS011;26722;43.212;27.932;2023-03-15T08:07:38;11.13;;;3.03;;
40993;SDS011;26722;43.212;27.932;2023-03-15T08:10:03;7.03;;;2.92;;
40993;SDS011;26722;43.212;27.932;2023-03-15T08:12:30;10.48;;;2.60;;
40993;SDS011;26722;43.212;27.932;2023-03-15T08:14:57;13.43;;;3.00;;
40993;SDS011;26722;43.212;27.932;2023-03-15T08:17:23;17.20;;;3.22;;
40993;SDS011;26722;43.212;27.932;2023-03-15T08:19:48;12.02;;;2.53;;
40993;SDS011;26722;43.212;27.932;2023-03-15T08:22:14;15.15;;;3.22;;
40993;SDS011;26722;43.212;27.932;2023-03-15T08:24:40;13.48;;;3.03;;
40993;SDS011;26722;43.212;27.932;2023-03-15T08:27:06;9.13;;;2.63;;
40993;SDS011;26722;43.212;27.932;2023-03-15T08:29:31;10.88;;;2.65;;
40993;SDS011;26722;43.212;27.932;2023-03-15T08:31:57;9.40;;;2.53;;
40993;SDS011;26722;43.212;27.932;2023-03-15T08:34:24;12.25;;;3.22;;
40993;SDS011;26722;43.212;27.932;2023-03-15T08:36:49;10.52;;;3.15;;
40993;SDS011;26722;43.212;27.932;2023-03-15T08:39:15;18.33;;;4.03;;
40993;SDS011;26722;43.212;27.932;2023-03-15T08:41:41;16.95;;;3.90;;
40993;SDS011;26722;43.212;27.932;2023-03-15T10:24:52;30.73;;;11.00;;
40993;SDS011;26722;43.212;27.932;2023-03-15T10:27:20;29.27;;;11.90;;
40993;SDS011;26722;43.212;27.932;2023-03-15T10:29:50;25.38;;;12.60;;
40993;SDS011;26722;43.212;27.932;2023-03-15T10:32:19;24.45;;;12.25;;
40993;SDS011;26722;43.212;27.932;2023-03-15T10:34:53;26.48;;;12.98;;
40993;SDS011;26722;43.212;27.932;2023-03-15T10:37:22;26.20;;;12.68;;
40993;SDS011;26722;43.212;27.932;2023-03-15T10:39:50;25.23;;;13.13;;
40993;SDS011;26722;43.212;27.932;2023-03-15T10:42:27;24.38;;;12.75;;
40993;SDS011;26722;43.212;27.932;2023-03-15T10:44:57;23.27;;;12.77;;
40993;SDS011;26722;43.212;27.932;2023-03-15T10:47:24;24.98;;;13.15;;
40993;SDS011;26722;43.212;27.932;2023-03-15T10:49:54;23.13;;;11.68;;
40993;SDS011;26722;43.212;27.932;2023-03-15T10:55:25;18.67;;;11.30;;
40993;SDS011;26722;43.212;27.932;2023-03-15T10:57:54;23.92;;;11.15;;
40993;SDS011;26722;43.212;27.932;2023-03-15T11:02:51;20.65;;;10.98;;
40993;SDS011;26722;43.212;27.932;2023-03-15T11:05:30;19.77;;;10.75;;
40993;SDS011;26722;43.212;27.932;2023-03-15T11:08:10;22.60;;;10.90;;
40993;SDS011;26722;43.212;27.932;2023-03-15T11:10:38;28.83;;;10.60;;
40993;SDS011;26722;43.212;27.932;2023-03-15T11:13:08;27.92;;;10.77;;
40993;SDS011;26722;43.212;27.932;2023-03-15T11:15:35;21.45;;;10.10;;
40993;SDS011;26722;43.212;27.932;2023-03-15T11:18:01;25.67;;;10.77;;
40993;SDS011;26722;43.212;27.932;2023-03-15T11:20:38;24.58;;;10.10;;
40993;SDS011;26722;43.212;27.932;2023-03-15T11:23:12;18.15;;;9.25;;
40993;SDS011;26722;43.212;27.932;2023-03-15T11:25:44;19.73;;;9.80;;
40993;SDS011;26722;43.212;27.932;2023-03-15T11:28:14;22.58;;;10.15;;
40993;SDS011;26722;43.212;27.932;2023-03-15T11:30:44;18.48;;;9.27;;
40993;SDS011;26722;43.212;27.932;2023-03-15T11:33:17;15.63;;;9.15;;
40993;SDS011;26722;43.212;27.932;2023-03-15T11:35:59;24.05;;;10.25;;
40993;SDS011;26722;43.212;27.932;2023-03-15T11:38:33;19.83;;;10.10;;
40993;SDS011;26722;43.212;27.932;2023-03-15T11:41:04;22.15;;;11.30;;
40993;SDS011;26722;43.212;27.932;2023-03-15T11:46:05;22.05;;;10.80;;
40993;SDS011;26722;43.212;27.932;2023-03-15T11:48:47;21.02;;;9.93;;
40993;SDS011;26722;43.212;27.932;2023-03-15T11:51:17;21.15;;;10.40;;
40993;SDS011;26722;43.212;27.932;2023-03-15T11:53:58;21.38;;;10.25;;
40993;SDS011;26722;43.212;27.932;2023-03-15T11:59:08;18.98;;;10.65;;
40993;SDS011;26722;43.212;27.932;2023-03-15T12:01:47;22.13;;;11.10;;
40993;SDS011;26722;43.212;27.932;2023-03-15T12:06:48;19.52;;;10.40;;
40993;SDS011;26722;43.212;27.932;2023-03-15T12:12:00;18.90;;;9.13;;
40993;SDS011;26722;43.212;27.932;2023-03-15T12:14:30;19.92;;;9.95;;
40993;SDS011;26722;43.212;27.932;2023-03-15T12:19:59;23.00;;;11.15;;
40993;SDS011;26722;43.212;27.932;2023-03-15T12:22:35;18.63;;;9.48;;
40993;SDS011;26722;43.212;27.932;2023-03-15T12:25:11;18.73;;;10.70;;
40993;SDS011;26722;43.212;27.932;2023-03-15T12:27:46;20.80;;;11.65;;
40993;SDS011;26722;43.212;27.932;2023-03-15T12:30:19;23.25;;;10.10;;
40993;SDS011;26722;43.212;27.932;2023-03-15T12:32:48;22.60;;;10.48;;
40993;SDS011;26722;43.212;27.932;2023-03-15T12:35:16;25.70;;;11.25;;
40993;SDS011;26722;43.212;27.932;2023-03-15T12:37:45;33.58;;;16.20;;
40993;SDS011;26722;43.212;27.932;2023-03-15T12:47:43;27.60;;;11.27;;
40993;SDS011;26722;43.212;27.932;2023-03-15T12:58:45;19.73;;;10.23;;
40993;SDS011;26722;43.212;27.932;2023-03-15T13:01:13;24.40;;;11.15;;
40993;SDS011;26722;43.212;27.932;2023-03-15T13:03:40;22.38;;;10.05;;
40993;SDS011;26722;43.212;27.932;2023-03-15T13:19:31;20.48;;;9.90;;
40993;SDS011;26722;43.212;27.932;2023-03-15T13:30:00;23.30;;;11.38;;
40993;SDS011;26722;43.212;27.932;2023-03-15T13:34:59;19.00;;;10.55;;
40993;SDS011;26722;43.212;27.932;2023-03-15T13:37:26;26.33;;;9.90;;
40993;SDS011;26722;43.212;27.932;2023-03-15T13:39:56;19.10;;;9.48;;
40993;SDS011;26722;43.212;27.932;2023-03-15T13:42:25;21.73;;;10.07;;
40993;SDS011;26722;43.212;27.932;2023-03-15T13:47:42;23.55;;;9.35;;
40993;SDS011;26722;43.212;27.932;2023-03-15T13:50:16;20.65;;;8.70;;
40993;SDS011;26722;43.212;27.932;2023-03-15T13:52:43;22.67;;;9.57;;
40993;SDS011;26722;43.212;27.932;2023-03-15T13:55:19;15.27;;;7.72;;
40993;SDS011;26722;43.212;27.932;2023-03-15T13:57:49;16.73;;;7.90;;
40993;SDS011;26722;43.212;27.932;2023-03-15T14:00:21;21.13;;;8.13;;
40993;SDS011;26722;43.212;27.932;2023-03-15T14:05:28;23.65;;;8.00;;
40993;SDS011;26722;43.212;27.932;2023-03-15T14:07:57;24.23;;;8.70;;
40993;SDS011;26722;43.212;27.932;2023-03-15T14:15:49;22.92;;;8.25;;
40993;SDS011;26722;43.212;27.932;2023-03-15T14:18:23;16.35;;;7.38;;
40993;SDS011;26722;43.212;27.932;2023-03-15T14:20:56;23.25;;;8.13;;
40993;SDS011;26722;43.212;27.932;2023-03-15T14:23:24;16.77;;;8.20;;
40993;SDS011;26722;43.212;27.932;2023-03-15T14:25:52;23.02;;;8.50;;
40993;SDS011;26722;43.212;27.932;2023-03-15T14:28:31;20.02;;;7.68;;
40993;SDS011;26722;43.212;27.932;2023-03-15T14:30:57;15.90;;;7.72;;
40993;SDS011;26722;43.212;27.932;2023-03-15T14:33:28;16.35;;;8.77;;
40993;SDS011;26722;43.212;27.932;2023-03-15T14:35:58;24.20;;;8.40;;
40993;SDS011;26722;43.212;27.932;2023-03-15T14:38:29;24.45;;;8.60;;
40993;SDS011;26722;43.212;27.932;2023-03-15T14:41:09;22.13;;;7.82;;
40993;SDS011;26722;43.212;27.932;2023-03-15T14:43:41;22.05;;;8.80;;
40993;SDS011;26722;43.212;27.932;2023-03-15T14:46:07;23.65;;;9.10;;
40993;SDS011;26722;43.212;27.932;2023-03-15T14:48:33;24.88;;;9.13;;
40993;SDS011;26722;43.212;27.932;2023-03-15T14:50:59;28.08;;;10.50;;
40993;SDS011;26722;43.212;27.932;2023-03-15T14:53:24;29.13;;;10.60;;
40993;SDS011;26722;43.212;27.932;2023-03-15T14:55:56;27.83;;;11.15;;
40993;SDS011;26722;43.212;27.932;2023-03-15T14:58:22;23.13;;;9.77;;
40993;SDS011;26722;43.212;27.932;2023-03-15T15:00:48;28.40;;;10.75;;
40993;SDS011;26722;43.212;27.932;2023-03-15T15:03:28;24.33;;;11.00;;
40993;SDS011;26722;43.212;27.932;2023-03-15T15:05:55;24.55;;;10.82;;
40993;SDS011;26722;43.212;27.932;2023-03-15T15:08:21;36.10;;;11.98;;
40993;SDS011;26722;43.212;27.932;2023-03-15T15:10:46;26.15;;;10.77;;
40993;SDS011;26722;43.212;27.932;2023-03-15T15:13:20;28.15;;;12.07;;
40993;SDS011;26722;43.212;27.932;2023-03-15T15:15:51;28.35;;;12.98;;
40993;SDS011;26722;43.212;27.932;2023-03-15T15:18:17;29.38;;;13.57;;
40993;SDS011;26722;43.212;27.932;2023-03-15T15:20:43;25.38;;;12.82;;
40993;SDS011;26722;43.212;27.932;2023-03-15T15:23:17;29.25;;;13.05;;
40993;SDS011;26722;43.212;27.932;2023-03-15T15:25:44;30.00;;;13.20;;
40993;SDS011;26722;43.212;27.932;2023-03-15T15:28:10;33.67;;;12.75;;
40993;SDS011;26722;43.212;27.932;2023-03-15T15:30:36;27.02;;;12.55;;
40993;SDS011;26722;43.212;27.932;2023-03-15T15:33:02;29.02;;;13.23;;
40993;SDS011;26722;43.212;27.932;2023-03-15T15:35:28;34.88;;;13.90;;
40993;SDS011;26722;43.212;27.932;2023-03-15T15:37:53;38.50;;;13.40;;
40993;SDS011;26722;43.212;27.932;2023-03-15T15:40:40;26.48;;;10.77;;
40993;SDS011;26722;43.212;27.932;2023-03-15T15:43:05;27.35;;;11.95;;
40993;SDS011;26722;43.212;27.932;2023-03-15T15:45:34;27.92;;;11.93;;
40993;SDS011;26722;43.212;27.932;2023-03-15T15:47:59;32.00;;;15.23;;
40993;SDS011;26722;43.212;27.932;2023-03-15T15:50:30;44.30;;;15.25;;
40993;SDS011;26722;43.212;27.932;2023-03-15T15:52:57;34.65;;;15.10;;
40993;SDS011;26722;43.212;27.932;2023-03-15T15:55:25;41.50;;;15.88;;
40993;SDS011;26722;43.212;27.932;2023-03-15T15:57:54;32.35;;;17.95;;
40993;SDS011;26722;43.212;27.932;2023-03-15T16:00:22;36.13;;;16.40;;
40993;SDS011;26722;43.212;27.932;2023-03-15T16:02:48;37.70;;;17.35;;
40993;SDS011;26722;43.212;27.932;2023-03-15T16:05:16;33.58;;;18.02;;
40993;SDS011;26722;43.212;27.932;2023-03-15T16:07:43;37.92;;;18.00;;
40993;SDS011;26722;43.212;27.932;2023-03-15T16:10:30;31.00;;;16.88;;
40993;SDS011;26722;43.212;27.932;2023-03-15T16:12:55;32.60;;;16.98;;
40993;SDS011;26722;43.212;27.932;2023-03-15T16:15:21;27.98;;;15.65;;
40993;SDS011;26722;43.212;27.932;2023-03-15T16:17:47;31.27;;;16.00;;
40993;SDS011;26722;43.212;27.932;2023-03-15T16:20:13;36.63;;;17.35;;
40993;SDS011;26722;43.212;27.932;2023-03-15T16:22:44;35.75;;;16.35;;
40993;SDS011;26722;43.212;27.932;2023-03-15T16:25:15;43.22;;;19.88;;
40993;SDS011;26722;43.212;27.932;2023-03-15T16:27:51;33.38;;;16.45;;
40993;SDS011;26722;43.212;27.932;2023-03-15T16:30:22;37.80;;;18.67;;
40993;SDS011;26722;43.212;27.932;2023-03-15T16:32:50;38.13;;;20.45;;
40993;SDS011;26722;43.212;27.932;2023-03-15T16:35:20;44.50;;;18.58;;
40993;SDS011;26722;43.212;27.932;2023-03-15T16:37:57;42.38;;;19.58;;
40993;SDS011;26722;43.212;27.932;2023-03-15T16:40:30;35.15;;;18.10;;
40993;SDS011;26722;43.212;27.932;2023-03-15T16:42:57;26.30;;;15.77;;
40993;SDS011;26722;43.212;27.932;2023-03-15T16:45:23;41.60;;;18.90;;
40993;SDS011;26722;43.212;27.932;2023-03-15T16:47:49;42.08;;;18.73;;
40993;SDS011;26722;43.212;27.932;2023-03-15T16:50:15;39.70;;;17.25;;
40993;SDS011;26722;43.212;27.932;2023-03-15T16:52:41;40.15;;;18.75;;
40993;SDS011;26722;43.212;27.932;2023-03-15T16:55:13;35.83;;;16.08;;
40993;SDS011;26722;43.212;27.932;2023-03-15T16:57:40;35.13;;;18.88;;
40993;SDS011;26722;43.212;27.932;2023-03-15T17:00:09;36.85;;;19.27;;
40993;SDS011;26722;43.212;27.932;2023-03-15T17:02:37;42.58;;;20.45;;
40993;SDS011;26722;43.212;27.932;2023-03-15T17:05:03;32.72;;;19.65;;
40993;SDS011;26722;43.212;27.932;2023-03-15T17:07:30;36.97;;;14.63;;
40993;SDS011;26722;43.212;27.932;2023-03-15T17:10:09;44.45;;;21.52;;
40993;SDS011;26722;43.212;27.932;2023-03-15T17:12:51;45.70;;;20.70;;
40993;SDS011;26722;43.212;27.932;2023-03-15T17:15:18;42.78;;;18.17;;
40993;SDS011;26722;43.212;27.932;2023-03-15T17:17:48;39.70;;;18.70;;
40993;SDS011;26722;43.212;27.932;2023-03-15T17:20:14;35.42;;;18.25;;
40993;SDS011;26722;43.212;27.932;2023-03-15T17:22:48;42.72;;;21.38;;
40993;SDS011;26722;43.212;27.932;2023-03-15T17:25:17;43.80;;;22.40;;
40993;SDS011;26722;43.212;27.932;2023-03-15T17:27:44;39.25;;;21.92;;
40993;SDS011;26722;43.212;27.932;2023-03-15T17:32:44;49.90;;;23.27;;
40993;SDS011;26722;43.212;27.932;2023-03-15T17:35:11;40.50;;;22.17;;
40993;SDS011;26722;43.212;27.932;2023-03-15T17:37:38;46.83;;;22.30;;